sensor_id;sensor_type;location;lat;lon;timestamp;pressure;altitude;pressure_sealevel;temperature;humidity
50682;BME280;36779;52.168;20.878;2022-07-17T00:01:40;100801.10;;;11.88;65.28
50682;BME280;36779;52.168;20.878;2022-07-17T00:04:12;100809.15;;;11.89;65.27
50682;BME280;36779;52.168;20.878;2022-07-17T00:06:45;100809.26;;;11.88;65.28
50682;BME280;36779;52.168;20.878;2022-07-17T00:09:17;100812.55;;;11.89;65.32
50682;BME280;36779;52.168;20.878;2022-07-17T00:11:50;100811.96;;;11.88;65.23
50682;BME280;36779;52.168;20.878;2022-07-17T00:14:23;100814.16;;;11.87;65.44
50682;BME280;36779;52.168;20.878;2022-07-17T00:16:55;100816.66;;;11.92;65.41
50682;BME280;36779;52.168;20.878;2022-07-17T00:19:29;100818.06;;;11.92;65.50
50682;BME280;36779;52.168;20.878;2022-07-17T00:22:01;100821.98;;;11.94;65.48
50682;BME280;36779;52.168;20.878;2022-07-17T00:24:33;100822.69;;;11.89;65.47
50682;BME280;36779;52.168;20.878;2022-07-17T00:27:05;100829.04;;;11.84;65.48
50682;BME280;36779;52.168;20.878;2022-07-17T00:29:37;100829.67;;;11.85;65.51
50682;BME280;36779;52.168;20.878;2022-07-17T00:32:09;100830.58;;;11.90;65.72
50682;BME280;36779;52.168;20.878;2022-07-17T00:34:41;100833.21;;;11.97;65.76
50682;BME280;36779;52.168;20.878;2022-07-17T00:37:14;100832.00;;;12.04;65.91
50682;BME280;36779;52.168;20.878;2022-07-17T00:39:46;100838.31;;;12.05;65.70
50682;BME280;36779;52.168;20.878;2022-07-17T00:42:19;100837.30;;;12.08;65.91
50682;BME280;36779;52.168;20.878;2022-07-17T00:44:53;100839.73;;;12.08;65.87
50682;BME280;36779;52.168;20.878;2022-07-17T00:47:27;100841.98;;;12.05;65.78
50682;BME280;36779;52.168;20.878;2022-07-17T00:49:59;100842.32;;;12.04;65.67
50682;BME280;36779;52.168;20.878;2022-07-17T00:52:31;100845.85;;;12.00;65.75
50682;BME280;36779;52.168;20.878;2022-07-17T00:55:04;100843.96;;;11.98;65.76
50682;BME280;36779;52.168;20.878;2022-07-17T00:58:03;100848.55;;;11.95;65.76
50682;BME280;36779;52.168;20.878;2022-07-17T01:00:35;100852.99;;;11.95;65.82
50682;BME280;36779;52.168;20.878;2022-07-17T01:03:09;100857.70;;;11.93;65.77
50682;BME280;36779;52.168;20.878;2022-07-17T01:05:41;100860.28;;;11.89;65.87
50682;BME280;36779;52.168;20.878;2022-07-17T01:08:13;100867.15;;;11.86;65.87
50682;BME280;36779;52.168;20.878;2022-07-17T01:10:46;100869.43;;;11.88;65.87
50682;BME280;36779;52.168;20.878;2022-07-17T01:13:19;100866.73;;;11.87;65.92
50682;BME280;36779;52.168;20.878;2022-07-17T01:15:51;100868.77;;;11.91;66.04
50682;BME280;36779;52.168;20.878;2022-07-17T01:18:23;100869.50;;;11.96;66.09
50682;BME280;36779;52.168;20.878;2022-07-17T01:20:56;100873.53;;;11.96;65.94
50682;BME280;36779;52.168;20.878;2022-07-17T01:23:28;100874.80;;;11.95;66.01
50682;BME280;36779;52.168;20.878;2022-07-17T01:26:00;100879.70;;;11.92;66.04
50682;BME280;36779;52.168;20.878;2022-07-17T01:28:32;100877.94;;;11.88;65.87
50682;BME280;36779;52.168;20.878;2022-07-17T01:31:06;100878.86;;;11.85;66.05
50682;BME280;36779;52.168;20.878;2022-07-17T01:33:39;100874.27;;;11.84;66.00
50682;BME280;36779;52.168;20.878;2022-07-17T01:36:20;100877.79;;;11.81;66.03
50682;BME280;36779;52.168;20.878;2022-07-17T01:38:55;100875.21;;;11.76;66.09
50682;BME280;36779;52.168;20.878;2022-07-17T01:41:27;100879.58;;;11.76;66.12
50682;BME280;36779;52.168;20.878;2022-07-17T01:44:00;100878.40;;;11.79;66.28
50682;BME280;36779;52.168;20.878;2022-07-17T01:46:34;100885.22;;;11.84;66.26
50682;BME280;36779;52.168;20.878;2022-07-17T01:49:07;100884.48;;;11.86;66.38
50682;BME280;36779;52.168;20.878;2022-07-17T01:51:39;100880.45;;;11.85;66.37
50682;BME280;36779;52.168;20.878;2022-07-17T01:54:12;100885.80;;;11.88;66.45
50682;BME280;36779;52.168;20.878;2022-07-17T01:56:43;100889.86;;;11.88;66.42
50682;BME280;36779;52.168;20.878;2022-07-17T01:59:16;100893.48;;;11.90;66.51
50682;BME280;36779;52.168;20.878;2022-07-17T02:01:48;100895.20;;;11.90;66.32
50682;BME280;36779;52.168;20.878;2022-07-17T02:04:20;100894.58;;;11.88;66.33
50682;BME280;36779;52.168;20.878;2022-07-17T02:06:56;100897.73;;;11.83;66.29
50682;BME280;36779;52.168;20.878;2022-07-17T02:09:28;100899.82;;;11.85;66.54
50682;BME280;36779;52.168;20.878;2022-07-17T02:12:00;100897.38;;;11.85;66.53
50682;BME280;36779;52.168;20.878;2022-07-17T02:14:33;100903.05;;;11.87;66.47
50682;BME280;36779;52.168;20.878;2022-07-17T02:17:07;100901.26;;;11.89;66.57
50682;BME280;36779;52.168;20.878;2022-07-17T02:19:40;100906.09;;;11.88;66.70
50682;BME280;36779;52.168;20.878;2022-07-17T02:22:12;100908.17;;;11.85;66.52
50682;BME280;36779;52.168;20.878;2022-07-17T02:24:44;100905.61;;;11.85;66.65
50682;BME280;36779;52.168;20.878;2022-07-17T02:27:16;100904.06;;;11.84;66.71
50682;BME280;36779;52.168;20.878;2022-07-17T02:29:48;100905.15;;;11.86;66.68
50682;BME280;36779;52.168;20.878;2022-07-17T02:32:20;100908.51;;;11.88;66.81
50682;BME280;36779;52.168;20.878;2022-07-17T02:34:53;100905.92;;;11.87;66.62
50682;BME280;36779;52.168;20.878;2022-07-17T02:37:25;100905.98;;;11.88;66.75
50682;BME280;36779;52.168;20.878;2022-07-17T02:39:58;100906.02;;;11.87;66.81
50682;BME280;36779;52.168;20.878;2022-07-17T02:42:30;100907.77;;;11.84;66.74
50682;BME280;36779;52.168;20.878;2022-07-17T02:45:02;100907.31;;;11.80;66.79
50682;BME280;36779;52.168;20.878;2022-07-17T02:47:37;100904.84;;;11.80;66.79
50682;BME280;36779;52.168;20.878;2022-07-17T02:50:11;100905.60;;;11.79;66.78
50682;BME280;36779;52.168;20.878;2022-07-17T02:52:43;100907.14;;;11.76;66.83
50682;BME280;36779;52.168;20.878;2022-07-17T02:55:15;100912.22;;;11.75;66.80
50682;BME280;36779;52.168;20.878;2022-07-17T02:57:48;100908.31;;;11.73;66.98
50682;BME280;36779;52.168;20.878;2022-07-17T03:00:23;100908.48;;;11.75;67.02
50682;BME280;36779;52.168;20.878;2022-07-17T03:02:55;100911.76;;;11.74;66.88
50682;BME280;36779;52.168;20.878;2022-07-17T03:05:28;100915.16;;;11.73;66.88
50682;BME280;36779;52.168;20.878;2022-07-17T03:08:00;100918.83;;;11.73;67.05
50682;BME280;36779;52.168;20.878;2022-07-17T03:10:32;100925.86;;;11.76;67.02
50682;BME280;36779;52.168;20.878;2022-07-17T03:13:04;100930.23;;;11.82;67.28
50682;BME280;36779;52.168;20.878;2022-07-17T03:15:37;100933.14;;;11.81;67.14
50682;BME280;36779;52.168;20.878;2022-07-17T03:18:09;100931.23;;;11.79;67.03
50682;BME280;36779;52.168;20.878;2022-07-17T03:20:41;100934.64;;;11.77;67.03
50682;BME280;36779;52.168;20.878;2022-07-17T03:23:13;100938.27;;;11.76;67.15
50682;BME280;36779;52.168;20.878;2022-07-17T03:25:45;100941.70;;;11.78;67.14
50682;BME280;36779;52.168;20.878;2022-07-17T03:28:17;100945.28;;;11.83;67.30
50682;BME280;36779;52.168;20.878;2022-07-17T03:30:49;100944.83;;;11.84;67.27
50682;BME280;36779;52.168;20.878;2022-07-17T03:33:22;100950.05;;;11.89;67.33
50682;BME280;36779;52.168;20.878;2022-07-17T03:35:55;100952.69;;;11.94;67.47
50682;BME280;36779;52.168;20.878;2022-07-17T03:38:27;100956.55;;;11.98;67.32
50682;BME280;36779;52.168;20.878;2022-07-17T03:40:59;100954.42;;;12.00;67.43
50682;BME280;36779;52.168;20.878;2022-07-17T03:43:31;100959.91;;;12.00;67.25
50682;BME280;36779;52.168;20.878;2022-07-17T03:46:05;100955.36;;;12.01;67.37
50682;BME280;36779;52.168;20.878;2022-07-17T03:48:37;100954.13;;;12.01;67.52
50682;BME280;36779;52.168;20.878;2022-07-17T03:51:16;100954.08;;;11.99;67.37
50682;BME280;36779;52.168;20.878;2022-07-17T03:53:50;100955.63;;;12.00;67.20
50682;BME280;36779;52.168;20.878;2022-07-17T03:56:23;100958.77;;;12.01;67.31
50682;BME280;36779;52.168;20.878;2022-07-17T03:58:55;100962.50;;;12.03;67.37
50682;BME280;36779;52.168;20.878;2022-07-17T04:01:27;100957.94;;;12.07;67.36
50682;BME280;36779;52.168;20.878;2022-07-17T04:04:01;100956.33;;;12.12;67.41
50682;BME280;36779;52.168;20.878;2022-07-17T04:06:34;100960.79;;;12.19;67.53
50682;BME280;36779;52.168;20.878;2022-07-17T04:09:06;100966.27;;;12.25;67.53
50682;BME280;36779;52.168;20.878;2022-07-17T04:11:38;100964.41;;;12.34;67.79
50682;BME280;36779;52.168;20.878;2022-07-17T04:14:10;100967.70;;;12.40;67.51
50682;BME280;36779;52.168;20.878;2022-07-17T04:16:42;100969.38;;;12.43;67.63
50682;BME280;36779;52.168;20.878;2022-07-17T04:19:14;100975.11;;;12.43;67.59
50682;BME280;36779;52.168;20.878;2022-07-17T04:21:46;100975.22;;;12.43;67.62
50682;BME280;36779;52.168;20.878;2022-07-17T04:24:18;100974.55;;;12.50;67.75
50682;BME280;36779;52.168;20.878;2022-07-17T04:26:50;100978.72;;;12.56;67.63
50682;BME280;36779;52.168;20.878;2022-07-17T04:29:22;100980.30;;;12.60;67.81
50682;BME280;36779;52.168;20.878;2022-07-17T04:31:55;100978.31;;;12.63;67.82
50682;BME280;36779;52.168;20.878;2022-07-17T04:34:28;100981.98;;;12.69;67.78
50682;BME280;36779;52.168;20.878;2022-07-17T04:37:00;100988.69;;;12.73;67.66
50682;BME280;36779;52.168;20.878;2022-07-17T04:39:33;100987.21;;;12.79;67.58
50682;BME280;36779;52.168;20.878;2022-07-17T04:42:05;100987.36;;;12.89;67.82
50682;BME280;36779;52.168;20.878;2022-07-17T04:44:37;100986.39;;;13.00;68.02
50682;BME280;36779;52.168;20.878;2022-07-17T04:47:09;100985.28;;;13.10;67.91
50682;BME280;36779;52.168;20.878;2022-07-17T04:49:41;100987.52;;;13.13;67.80
50682;BME280;36779;52.168;20.878;2022-07-17T04:52:13;100989.84;;;13.18;67.57
50682;BME280;36779;52.168;20.878;2022-07-17T04:54:45;100994.29;;;13.14;67.69
50682;BME280;36779;52.168;20.878;2022-07-17T04:57:18;100996.20;;;13.18;67.82
50682;BME280;36779;52.168;20.878;2022-07-17T04:59:50;100997.52;;;13.19;67.60
50682;BME280;36779;52.168;20.878;2022-07-17T05:02:23;101002.58;;;13.22;67.73
50682;BME280;36779;52.168;20.878;2022-07-17T05:04:57;101002.84;;;13.27;67.89
50682;BME280;36779;52.168;20.878;2022-07-17T05:07:29;101006.63;;;13.28;67.71
50682;BME280;36779;52.168;20.878;2022-07-17T05:10:02;101009.61;;;13.29;67.66
50682;BME280;36779;52.168;20.878;2022-07-17T05:12:35;101010.02;;;13.31;67.58
50682;BME280;36779;52.168;20.878;2022-07-17T05:15:08;101013.13;;;13.32;67.44
50682;BME280;36779;52.168;20.878;2022-07-17T05:17:40;101017.67;;;13.31;67.36
50682;BME280;36779;52.168;20.878;2022-07-17T05:20:12;101022.34;;;13.34;67.55
50682;BME280;36779;52.168;20.878;2022-07-17T05:22:45;101022.83;;;13.45;67.89
50682;BME280;36779;52.168;20.878;2022-07-17T05:25:17;101023.57;;;13.58;68.06
50682;BME280;36779;52.168;20.878;2022-07-17T05:27:49;101024.17;;;13.60;67.50
50682;BME280;36779;52.168;20.878;2022-07-17T05:30:28;101026.16;;;13.62;67.57
50682;BME280;36779;52.168;20.878;2022-07-17T05:33:00;101028.16;;;13.68;67.64
50682;BME280;36779;52.168;20.878;2022-07-17T05:35:32;101028.52;;;13.73;67.64
50682;BME280;36779;52.168;20.878;2022-07-17T05:38:04;101030.30;;;13.71;67.37
50682;BME280;36779;52.168;20.878;2022-07-17T05:40:37;101030.48;;;13.65;67.28
50682;BME280;36779;52.168;20.878;2022-07-17T05:43:09;101030.58;;;13.67;67.45
50682;BME280;36779;52.168;20.878;2022-07-17T05:45:41;101031.81;;;13.72;67.34
50682;BME280;36779;52.168;20.878;2022-07-17T05:48:13;101030.32;;;13.78;67.78
50682;BME280;36779;52.168;20.878;2022-07-17T05:50:45;101033.34;;;13.88;67.74
50682;BME280;36779;52.168;20.878;2022-07-17T05:53:17;101044.25;;;14.04;68.02
50682;BME280;36779;52.168;20.878;2022-07-17T05:55:49;101049.40;;;14.09;67.47
50682;BME280;36779;52.168;20.878;2022-07-17T05:58:22;101053.15;;;14.13;67.93
50682;BME280;36779;52.168;20.878;2022-07-17T06:00:54;101056.75;;;14.28;67.83
50682;BME280;36779;52.168;20.878;2022-07-17T06:03:26;101052.23;;;14.34;67.60
50682;BME280;36779;52.168;20.878;2022-07-17T06:05:59;101063.41;;;14.36;67.42
50682;BME280;36779;52.168;20.878;2022-07-17T06:08:31;101066.40;;;14.38;67.43
50682;BME280;36779;52.168;20.878;2022-07-17T06:11:04;101070.95;;;14.39;67.46
50682;BME280;36779;52.168;20.878;2022-07-17T06:13:37;101074.04;;;14.37;67.36
50682;BME280;36779;52.168;20.878;2022-07-17T06:16:09;101076.79;;;14.34;67.32
50682;BME280;36779;52.168;20.878;2022-07-17T06:18:44;101075.85;;;14.35;67.56
50682;BME280;36779;52.168;20.878;2022-07-17T06:21:17;101072.30;;;14.50;67.61
50682;BME280;36779;52.168;20.878;2022-07-17T06:23:49;101076.01;;;14.60;67.62
50682;BME280;36779;52.168;20.878;2022-07-17T06:26:21;101079.58;;;14.61;67.40
50682;BME280;36779;52.168;20.878;2022-07-17T06:28:53;101075.06;;;14.60;67.58
50682;BME280;36779;52.168;20.878;2022-07-17T06:31:26;101075.65;;;14.64;67.70
50682;BME280;36779;52.168;20.878;2022-07-17T06:33:59;101077.04;;;14.74;67.55
50682;BME280;36779;52.168;20.878;2022-07-17T06:36:31;101079.69;;;14.84;67.74
50682;BME280;36779;52.168;20.878;2022-07-17T06:39:03;101080.98;;;14.89;67.45
50682;BME280;36779;52.168;20.878;2022-07-17T06:41:35;101080.67;;;14.92;67.49
50682;BME280;36779;52.168;20.878;2022-07-17T06:44:07;101086.11;;;14.99;67.54
50682;BME280;36779;52.168;20.878;2022-07-17T06:46:39;101092.58;;;15.08;67.73
50682;BME280;36779;52.168;20.878;2022-07-17T06:49:11;101087.39;;;15.14;67.48
50682;BME280;36779;52.168;20.878;2022-07-17T06:51:43;101091.21;;;15.15;67.29
50682;BME280;36779;52.168;20.878;2022-07-17T06:54:16;101086.02;;;15.21;67.37
50682;BME280;36779;52.168;20.878;2022-07-17T06:56:48;101092.83;;;15.29;67.55
50682;BME280;36779;52.168;20.878;2022-07-17T06:59:21;101092.45;;;15.40;67.47
50682;BME280;36779;52.168;20.878;2022-07-17T07:01:53;101092.95;;;15.46;67.27
50682;BME280;36779;52.168;20.878;2022-07-17T07:04:25;101097.20;;;15.50;67.56
50682;BME280;36779;52.168;20.878;2022-07-17T07:06:57;101094.86;;;15.58;67.39
50682;BME280;36779;52.168;20.878;2022-07-17T07:09:29;101097.57;;;15.61;66.96
50682;BME280;36779;52.168;20.878;2022-07-17T07:12:01;101096.79;;;15.63;67.10
50682;BME280;36779;52.168;20.878;2022-07-17T07:14:33;101099.27;;;15.67;67.14
50682;BME280;36779;52.168;20.878;2022-07-17T07:17:06;101104.49;;;15.71;67.31
50682;BME280;36779;52.168;20.878;2022-07-17T07:19:38;101103.81;;;15.72;66.95
50682;BME280;36779;52.168;20.878;2022-07-17T07:22:10;101107.84;;;15.78;67.14
50682;BME280;36779;52.168;20.878;2022-07-17T07:24:42;101114.79;;;15.85;67.10
50682;BME280;36779;52.168;20.878;2022-07-17T07:27:15;101114.23;;;15.92;67.38
50682;BME280;36779;52.168;20.878;2022-07-17T07:29:47;101117.45;;;16.03;67.26
50682;BME280;36779;52.168;20.878;2022-07-17T07:32:19;101117.52;;;16.14;67.27
50682;BME280;36779;52.168;20.878;2022-07-17T07:34:51;101118.68;;;16.25;67.33
50682;BME280;36779;52.168;20.878;2022-07-17T07:37:23;101121.49;;;16.30;67.08
50682;BME280;36779;52.168;20.878;2022-07-17T07:39:56;101121.75;;;16.33;67.11
50682;BME280;36779;52.168;20.878;2022-07-17T07:42:28;101121.52;;;16.44;67.05
50682;BME280;36779;52.168;20.878;2022-07-17T07:45:00;101126.82;;;16.57;67.21
50682;BME280;36779;52.168;20.878;2022-07-17T07:47:32;101126.94;;;16.70;67.01
50682;BME280;36779;52.168;20.878;2022-07-17T07:50:04;101122.52;;;16.84;67.25
50682;BME280;36779;52.168;20.878;2022-07-17T07:52:36;101120.56;;;16.91;66.91
50682;BME280;36779;52.168;20.878;2022-07-17T07:55:10;101123.90;;;16.99;67.07
50682;BME280;36779;52.168;20.878;2022-07-17T07:58:00;101124.49;;;17.09;67.01
50682;BME280;36779;52.168;20.878;2022-07-17T08:00:33;101125.59;;;17.24;67.01
50682;BME280;36779;52.168;20.878;2022-07-17T08:03:05;101132.14;;;17.31;66.81
50682;BME280;36779;52.168;20.878;2022-07-17T08:05:38;101134.22;;;17.34;66.62
50682;BME280;36779;52.168;20.878;2022-07-17T08:08:09;101133.09;;;17.43;66.84
50682;BME280;36779;52.168;20.878;2022-07-17T08:10:41;101135.48;;;17.53;66.72
50682;BME280;36779;52.168;20.878;2022-07-17T08:13:14;101131.12;;;17.59;66.70
50682;BME280;36779;52.168;20.878;2022-07-17T08:15:46;101133.73;;;17.67;66.55
50682;BME280;36779;52.168;20.878;2022-07-17T08:18:18;101133.44;;;17.67;66.46
50682;BME280;36779;52.168;20.878;2022-07-17T08:20:51;101132.98;;;17.70;66.46
50682;BME280;36779;52.168;20.878;2022-07-17T08:23:25;101130.31;;;17.78;66.39
50682;BME280;36779;52.168;20.878;2022-07-17T08:25:57;101129.19;;;17.85;66.55
50682;BME280;36779;52.168;20.878;2022-07-17T08:28:29;101127.52;;;17.91;66.35
50682;BME280;36779;52.168;20.878;2022-07-17T08:40:16;101126.99;;;18.31;66.12
50682;BME280;36779;52.168;20.878;2022-07-17T08:42:48;101127.73;;;18.46;66.15
50682;BME280;36779;52.168;20.878;2022-07-17T08:45:25;101132.26;;;18.56;65.99
50682;BME280;36779;52.168;20.878;2022-07-17T08:47:58;101132.77;;;18.64;65.89
50682;BME280;36779;52.168;20.878;2022-07-17T08:50:34;101135.54;;;18.88;66.11
50682;BME280;36779;52.168;20.878;2022-07-17T08:53:06;101134.11;;;19.08;65.60
50682;BME280;36779;52.168;20.878;2022-07-17T08:55:38;101127.89;;;19.18;65.45
50682;BME280;36779;52.168;20.878;2022-07-17T08:58:15;101128.56;;;19.40;65.63
50682;BME280;36779;52.168;20.878;2022-07-17T09:00:48;101131.55;;;19.68;65.50
50682;BME280;36779;52.168;20.878;2022-07-17T09:03:20;101133.27;;;19.93;65.36
50682;BME280;36779;52.168;20.878;2022-07-17T09:05:55;101133.89;;;20.25;65.35
50682;BME280;36779;52.168;20.878;2022-07-17T09:08:28;101134.65;;;20.58;65.19
50682;BME280;36779;52.168;20.878;2022-07-17T09:11:06;101134.29;;;20.84;64.89
50682;BME280;36779;52.168;20.878;2022-07-17T09:13:45;101140.70;;;21.03;64.59
50682;BME280;36779;52.168;20.878;2022-07-17T09:16:18;101136.42;;;21.26;64.40
50682;BME280;36779;52.168;20.878;2022-07-17T09:18:51;101140.61;;;21.49;64.25
50682;BME280;36779;52.168;20.878;2022-07-17T09:21:27;101142.45;;;21.59;63.69
50682;BME280;36779;52.168;20.878;2022-07-17T09:24:01;101142.86;;;21.68;63.50
50682;BME280;36779;52.168;20.878;2022-07-17T09:26:35;101141.10;;;21.91;63.57
50682;BME280;36779;52.168;20.878;2022-07-17T09:29:08;101142.74;;;21.94;62.99
50682;BME280;36779;52.168;20.878;2022-07-17T09:31:43;101141.38;;;22.04;63.06
50682;BME280;36779;52.168;20.878;2022-07-17T09:34:19;101148.71;;;22.37;63.31
50682;BME280;36779;52.168;20.878;2022-07-17T09:37:00;101148.59;;;22.47;62.43
50682;BME280;36779;52.168;20.878;2022-07-17T09:39:37;101147.20;;;22.34;61.71
50682;BME280;36779;52.168;20.878;2022-07-17T09:42:11;101150.51;;;22.08;61.17
50682;BME280;36779;52.168;20.878;2022-07-17T09:45:01;101152.12;;;21.84;61.11
50682;BME280;36779;52.168;20.878;2022-07-17T09:47:34;101151.33;;;21.69;61.17
50682;BME280;36779;52.168;20.878;2022-07-17T09:50:08;101150.16;;;21.51;60.89
50682;BME280;36779;52.168;20.878;2022-07-17T09:52:41;101148.36;;;21.25;60.64
50682;BME280;36779;52.168;20.878;2022-07-17T09:55:13;101147.51;;;21.02;60.93
50682;BME280;36779;52.168;20.878;2022-07-17T09:58:06;101148.33;;;21.22;61.73
50682;BME280;36779;52.168;20.878;2022-07-17T10:00:40;101146.33;;;21.59;61.99
50682;BME280;36779;52.168;20.878;2022-07-17T10:03:12;101143.13;;;21.93;61.68
50682;BME280;36779;52.168;20.878;2022-07-17T10:05:43;101140.84;;;21.98;60.90
50682;BME280;36779;52.168;20.878;2022-07-17T10:08:16;101135.05;;;21.88;60.53
50682;BME280;36779;52.168;20.878;2022-07-17T10:10:49;101142.23;;;21.75;60.31
50682;BME280;36779;52.168;20.878;2022-07-17T10:13:22;101142.22;;;21.42;59.61
50682;BME280;36779;52.168;20.878;2022-07-17T10:15:55;101143.31;;;21.10;59.64
50682;BME280;36779;52.168;20.878;2022-07-17T10:18:38;101141.31;;;20.95;59.85
50682;BME280;36779;52.168;20.878;2022-07-17T10:21:16;101135.80;;;20.77;59.67
50682;BME280;36779;52.168;20.878;2022-07-17T10:24:06;101141.08;;;20.60;59.71
50682;BME280;36779;52.168;20.878;2022-07-17T10:26:43;101144.13;;;20.58;59.96
50682;BME280;36779;52.168;20.878;2022-07-17T10:29:32;101151.16;;;20.52;59.81
50682;BME280;36779;52.168;20.878;2022-07-17T10:32:13;101153.05;;;20.39;59.60
50682;BME280;36779;52.168;20.878;2022-07-17T10:34:48;101154.93;;;20.25;59.61
50682;BME280;36779;52.168;20.878;2022-07-17T10:37:23;101152.50;;;20.12;59.44
50682;BME280;36779;52.168;20.878;2022-07-17T10:40:02;101156.80;;;19.98;59.52
50682;BME280;36779;52.168;20.878;2022-07-17T10:42:58;101155.91;;;19.87;59.55
50682;BME280;36779;52.168;20.878;2022-07-17T10:45:32;101153.39;;;19.76;59.53
50682;BME280;36779;52.168;20.878;2022-07-17T10:48:08;101153.95;;;19.69;59.62
50682;BME280;36779;52.168;20.878;2022-07-17T10:50:43;101152.44;;;19.81;60.05
50682;BME280;36779;52.168;20.878;2022-07-17T10:53:18;101152.90;;;20.02;60.02
50682;BME280;36779;52.168;20.878;2022-07-17T10:55:56;101150.90;;;20.04;59.60
50682;BME280;36779;52.168;20.878;2022-07-17T10:58:30;101149.29;;;20.00;59.47
50682;BME280;36779;52.168;20.878;2022-07-17T11:01:06;101150.17;;;20.24;60.27
50682;BME280;36779;52.168;20.878;2022-07-17T11:03:41;101147.08;;;20.84;60.83
50682;BME280;36779;52.168;20.878;2022-07-17T11:06:18;101146.64;;;21.42;60.53
50682;BME280;36779;52.168;20.878;2022-07-17T11:08:53;101147.53;;;21.59;59.52
50682;BME280;36779;52.168;20.878;2022-07-17T11:11:38;101144.61;;;21.41;58.89
50682;BME280;36779;52.168;20.878;2022-07-17T11:14:13;101143.66;;;21.21;58.54
50682;BME280;36779;52.168;20.878;2022-07-17T11:16:49;101151.24;;;21.09;58.66
50682;BME280;36779;52.168;20.878;2022-07-17T11:19:26;101154.41;;;20.95;58.37
50682;BME280;36779;52.168;20.878;2022-07-17T11:22:00;101153.89;;;20.79;58.29
50682;BME280;36779;52.168;20.878;2022-07-17T11:24:38;101152.99;;;20.69;58.37
50682;BME280;36779;52.168;20.878;2022-07-17T11:27:18;101154.87;;;20.59;58.48
50682;BME280;36779;52.168;20.878;2022-07-17T11:29:55;101155.91;;;20.61;58.58
50682;BME280;36779;52.168;20.878;2022-07-17T11:32:34;101150.86;;;20.66;58.65
50682;BME280;36779;52.168;20.878;2022-07-17T11:35:19;101146.73;;;20.93;59.25
50682;BME280;36779;52.168;20.878;2022-07-17T11:38:13;101145.55;;;21.60;59.71
50682;BME280;36779;52.168;20.878;2022-07-17T11:40:48;101141.16;;;22.06;58.98
50682;BME280;36779;52.168;20.878;2022-07-17T11:43:23;101145.81;;;22.30;58.58
50682;BME280;36779;52.168;20.878;2022-07-17T11:45:56;101142.77;;;22.62;58.32
50682;BME280;36779;52.168;20.878;2022-07-17T11:48:28;101142.59;;;22.63;57.46
50682;BME280;36779;52.168;20.878;2022-07-17T11:51:00;101145.08;;;22.63;57.30
50682;BME280;36779;52.168;20.878;2022-07-17T11:53:37;101147.59;;;22.70;57.14
50682;BME280;36779;52.168;20.878;2022-07-17T11:56:20;101147.34;;;22.65;56.63
50682;BME280;36779;52.168;20.878;2022-07-17T11:58:52;101147.43;;;22.65;56.64
50682;BME280;36779;52.168;20.878;2022-07-17T12:01:39;101146.50;;;22.79;56.83
50682;BME280;36779;52.168;20.878;2022-07-17T12:04:13;101150.72;;;23.07;56.84
50682;BME280;36779;52.168;20.878;2022-07-17T12:06:57;101142.09;;;23.36;56.72
50682;BME280;36779;52.168;20.878;2022-07-17T12:09:33;101145.88;;;23.64;56.46
50682;BME280;36779;52.168;20.878;2022-07-17T12:12:06;101146.02;;;23.94;56.43
50682;BME280;36779;52.168;20.878;2022-07-17T12:14:49;101142.42;;;24.23;56.20
50682;BME280;36779;52.168;20.878;2022-07-17T12:17:25;101142.75;;;24.45;55.86
50682;BME280;36779;52.168;20.878;2022-07-17T12:20:04;101141.64;;;24.56;55.29
50682;BME280;36779;52.168;20.878;2022-07-17T12:22:45;101138.05;;;24.61;55.01
50682;BME280;36779;52.168;20.878;2022-07-17T12:25:27;101136.77;;;24.75;55.02
50682;BME280;36779;52.168;20.878;2022-07-17T12:27:59;101133.30;;;25.00;54.85
50682;BME280;36779;52.168;20.878;2022-07-17T12:30:31;101133.82;;;25.19;54.56
50682;BME280;36779;52.168;20.878;2022-07-17T12:33:06;101131.45;;;25.30;54.28
50682;BME280;36779;52.168;20.878;2022-07-17T12:35:37;101131.27;;;25.32;53.77
50682;BME280;36779;52.168;20.878;2022-07-17T12:38:10;101136.13;;;25.37;53.78
50682;BME280;36779;52.168;20.878;2022-07-17T12:40:42;101130.49;;;25.47;53.59
50682;BME280;36779;52.168;20.878;2022-07-17T12:43:15;101134.45;;;25.41;53.08
50682;BME280;36779;52.168;20.878;2022-07-17T12:45:46;101131.69;;;25.31;52.77
50682;BME280;36779;52.168;20.878;2022-07-17T12:48:19;101134.85;;;25.03;52.36
50682;BME280;36779;52.168;20.878;2022-07-17T12:50:50;101137.06;;;24.66;52.13
50682;BME280;36779;52.168;20.878;2022-07-17T12:53:24;101134.16;;;24.45;52.25
50682;BME280;36779;52.168;20.878;2022-07-17T12:55:58;101134.94;;;24.47;52.54
50682;BME280;36779;52.168;20.878;2022-07-17T12:58:30;101138.83;;;24.44;52.27
50682;BME280;36779;52.168;20.878;2022-07-17T13:01:02;101142.02;;;24.22;51.96
50682;BME280;36779;52.168;20.878;2022-07-17T13:03:36;101143.41;;;23.93;51.79
50682;BME280;36779;52.168;20.878;2022-07-17T13:06:09;101144.77;;;23.69;51.89
50682;BME280;36779;52.168;20.878;2022-07-17T13:08:42;101148.87;;;23.43;51.77
50682;BME280;36779;52.168;20.878;2022-07-17T13:11:15;101150.93;;;23.23;52.04
50682;BME280;36779;52.168;20.878;2022-07-17T13:13:48;101147.02;;;23.18;52.17
50682;BME280;36779;52.168;20.878;2022-07-17T13:16:20;101143.92;;;23.26;52.39
50682;BME280;36779;52.168;20.878;2022-07-17T13:18:52;101137.56;;;23.45;52.61
50682;BME280;36779;52.168;20.878;2022-07-17T13:21:25;101140.27;;;23.64;52.42
50682;BME280;36779;52.168;20.878;2022-07-17T13:23:58;101139.83;;;23.83;52.46